createdAt,value
2022-08-01T00:00:41.573Z,21.35
2022-08-01T00:01:43.324Z,21.32
2022-08-01T00:02:45.111Z,21.3
2022-08-01T00:03:46.818Z,21.26
2022-08-01T00:04:48.583Z,21.24
2022-08-01T00:05:50.281Z,21.21
2022-08-01T00:06:51.978Z,21.19
2022-08-01T00:07:53.773Z,21.17
2022-08-01T00:08:55.505Z,21.13
2022-08-01T00:09:57.245Z,21.1
2022-08-01T00:11:01.466Z,21.08
2022-08-01T00:12:00.663Z,21.05
2022-08-01T00:13:02.720Z,21.03
2022-08-01T00:14:04.188Z,20.98
2022-08-01T00:15:06.037Z,20.95
2022-08-01T00:16:07.645Z,20.92
2022-08-01T00:17:09.529Z,20.87
2022-08-01T00:18:11.184Z,20.83
2022-08-01T00:19:12.801Z,20.79
2022-08-01T00:20:14.660Z,20.76
2022-08-01T00:21:16.268Z,20.72
2022-08-01T00:22:18.007Z,20.68
2022-08-01T00:23:19.899Z,20.66
2022-08-01T00:24:21.460Z,20.65
2022-08-01T00:25:33.474Z,20.63
2022-08-01T00:26:25.008Z,20.61
2022-08-01T00:27:26.814Z,20.6
2022-08-01T00:28:28.400Z,20.59
2022-08-01T00:30:11.029Z,20.56
2022-08-01T00:30:31.892Z,20.56
2022-08-01T00:31:33.633Z,20.55
2022-08-01T00:32:35.465Z,20.54
2022-08-01T00:33:37.074Z,20.52
2022-08-01T00:34:38.929Z,20.5
2022-08-01T00:35:40.542Z,20.49
2022-08-01T00:36:42.406Z,20.48
2022-08-01T00:37:44.004Z,20.47
2022-08-01T00:38:45.813Z,20.47
2022-08-01T00:39:47.529Z,20.46
2022-08-01T00:40:49.212Z,20.44
2022-08-01T00:41:50.958Z,20.44
2022-08-01T00:42:52.758Z,20.43
2022-08-01T00:43:54.410Z,20.42
2022-08-01T00:44:56.218Z,20.41
2022-08-01T00:45:57.933Z,20.39
2022-08-01T00:46:59.895Z,20.39
2022-08-01T00:48:01.491Z,20.37
2022-08-01T00:49:03.141Z,20.35
2022-08-01T00:50:04.910Z,20.34
2022-08-01T00:51:06.526Z,20.31
2022-08-01T00:52:08.684Z,20.3
2022-08-01T00:53:09.972Z,20.29
2022-08-01T00:54:11.733Z,20.28
2022-08-01T00:55:14.871Z,20.26
2022-08-01T00:56:15.280Z,20.24
2022-08-01T00:57:39.994Z,20.24
2022-08-01T00:58:18.789Z,20.22
2022-08-01T00:59:20.560Z,20.21
2022-08-01T01:00:26.337Z,20.19
2022-08-01T01:01:23.889Z,20.17
2022-08-01T01:02:25.616Z,20.16
2022-08-01T01:03:56.405Z,20.14
2022-08-01T01:04:29.079Z,20.12
2022-08-01T01:05:34.584Z,20.1
2022-08-01T01:06:32.665Z,20.07
2022-08-01T01:07:34.345Z,20.06
2022-08-01T01:08:36.003Z,20.03
2022-08-01T01:09:37.753Z,20
2022-08-01T01:10:39.823Z,19.97
2022-08-01T01:11:41.222Z,19.94
2022-08-01T01:12:45.819Z,19.91
2022-08-01T01:13:50.333Z,19.87
2022-08-01T01:14:46.466Z,19.84
2022-08-01T01:15:48.141Z,19.81
2022-08-01T01:16:49.972Z,19.78
2022-08-01T01:17:51.984Z,19.76
2022-08-01T01:18:53.353Z,19.73
2022-08-01T01:19:55.280Z,19.71
2022-08-01T01:20:57.073Z,19.69
2022-08-01T01:21:58.634Z,19.67
2022-08-01T01:23:00.510Z,19.65
2022-08-01T01:24:02.015Z,19.63
2022-08-01T01:25:03.888Z,19.6
2022-08-01T01:26:06.520Z,19.57
2022-08-01T01:27:07.246Z,19.56
2022-08-01T01:28:08.960Z,19.53
2022-08-01T01:29:10.684Z,19.5
2022-08-01T01:30:12.561Z,19.48
2022-08-01T01:31:14.286Z,19.44
2022-08-01T01:32:15.912Z,19.42
2022-08-01T01:33:17.693Z,19.39
2022-08-01T01:34:19.419Z,19.36
2022-08-01T01:35:21.106Z,19.32
2022-08-01T01:36:22.975Z,19.29
2022-08-01T01:37:24.781Z,19.26
2022-08-01T01:38:26.298Z,19.22
2022-08-01T01:39:28.024Z,19.19
2022-08-01T01:40:29.869Z,19.17
2022-08-01T01:41:31.509Z,19.15
2022-08-01T01:42:33.383Z,19.13
2022-08-01T01:43:35.031Z,19.12
2022-08-01T01:44:36.717Z,19.1
2022-08-01T01:45:38.507Z,19.09
2022-08-01T01:46:40.195Z,19.08
2022-08-01T01:47:42.030Z,19.08
2022-08-01T01:48:43.642Z,19.06
2022-08-01T01:49:45.431Z,19.06
2022-08-01T01:50:47.117Z,19.05
2022-08-01T01:52:02.050Z,19.04
2022-08-01T01:52:50.597Z,19.03
2022-08-01T01:53:52.316Z,19.03
2022-08-01T01:54:54.317Z,19.02
2022-08-01T01:55:55.871Z,19
2022-08-01T01:56:57.538Z,19
2022-08-01T01:57:59.245Z,18.98
2022-08-01T01:59:01.140Z,18.96
2022-08-01T02:00:02.856Z,18.94
2022-08-01T02:01:05.499Z,18.94
2022-08-01T02:02:06.801Z,18.93
2022-08-01T02:03:08.193Z,18.91
2022-08-01T02:04:10.069Z,18.91
2022-08-01T02:05:11.807Z,18.91
2022-08-01T02:06:13.144Z,18.9
2022-08-01T02:07:15.155Z,18.9
2022-08-01T02:08:16.630Z,18.89
2022-08-01T02:09:18.342Z,18.89
2022-08-01T02:10:20.237Z,18.89
2022-08-01T02:11:21.832Z,18.89
2022-08-01T02:12:23.615Z,18.87
2022-08-01T02:13:25.260Z,18.87
2022-08-01T02:14:27.070Z,18.86
2022-08-01T02:15:28.744Z,18.86
2022-08-01T02:16:30.656Z,18.85
2022-08-01T02:17:32.224Z,18.84
2022-08-01T02:18:34.070Z,18.83
2022-08-01T02:19:37.932Z,18.82
2022-08-01T02:20:37.415Z,18.8
2022-08-01T02:21:39.140Z,18.78
2022-08-01T02:22:41.085Z,18.77
2022-08-01T02:23:42.608Z,18.75
2022-08-01T02:24:44.483Z,18.73
2022-08-01T02:26:10.872Z,18.72
2022-08-01T02:26:47.816Z,18.7
2022-08-01T02:27:49.631Z,18.69
2022-08-01T02:28:51.312Z,18.66
2022-08-01T02:29:53.040Z,18.65
2022-08-01T02:30:54.875Z,18.63
2022-08-01T02:31:56.492Z,18.61
2022-08-01T02:32:58.261Z,18.59
2022-08-01T02:34:00.515Z,18.57
2022-08-01T02:35:01.886Z,18.55
2022-08-01T02:36:29.772Z,18.53
2022-08-01T02:37:05.302Z,18.51
2022-08-01T02:38:06.958Z,18.49
2022-08-01T02:39:08.828Z,18.47
2022-08-01T02:40:12.969Z,18.45
2022-08-01T02:41:12.630Z,18.43
2022-08-01T02:42:13.983Z,18.41
2022-08-01T02:43:15.575Z,18.39
2022-08-01T02:44:17.308Z,18.37
2022-08-01T02:45:19.325Z,18.34
2022-08-01T02:46:20.947Z,18.32
2022-08-01T02:47:22.640Z,18.29
2022-08-01T02:48:24.530Z,18.27
2022-08-01T02:49:26.421Z,18.25
2022-08-01T02:50:27.719Z,18.22
2022-08-01T02:51:29.549Z,18.2
2022-08-01T02:52:31.485Z,18.18
2022-08-01T02:53:44.283Z,18.16
2022-08-01T02:54:34.822Z,18.13
2022-08-01T02:55:36.547Z,18.11
2022-08-01T02:56:38.135Z,18.09
2022-08-01T02:57:51.775Z,18.08
2022-08-01T02:58:41.676Z,18.06
2022-08-01T02:59:43.449Z,18.03
2022-08-01T03:00:45.067Z,18.01
2022-08-01T03:01:46.813Z,17.99
2022-08-01T03:02:48.544Z,17.97
2022-08-01T03:03:50.403Z,17.94
2022-08-01T03:04:56.596Z,17.91
2022-08-01T03:05:53.716Z,17.89
2022-08-01T03:06:55.761Z,17.86
2022-08-01T03:08:01.444Z,17.84
2022-08-01T03:08:58.927Z,17.8
2022-08-01T03:10:00.765Z,17.78
2022-08-01T03:11:05.444Z,17.76
2022-08-01T03:12:04.560Z,17.71
2022-08-01T03:13:05.955Z,17.69
2022-08-01T03:14:07.609Z,17.66
2022-08-01T03:15:09.341Z,17.62
2022-08-01T03:16:11.067Z,17.6
2022-08-01T03:17:12.816Z,17.58
2022-08-01T03:18:14.556Z,17.57
2022-08-01T03:19:16.287Z,17.55
2022-08-01T03:20:18.017Z,17.54
2022-08-01T03:21:19.740Z,17.53
2022-08-01T03:22:21.555Z,17.53
2022-08-01T03:23:23.277Z,17.52
2022-08-01T03:24:24.951Z,17.53
2022-08-01T03:25:26.741Z,17.53
2022-08-01T03:26:28.557Z,17.54
2022-08-01T03:27:30.538Z,17.54
2022-08-01T03:28:31.951Z,17.55
2022-08-01T03:29:33.732Z,17.56
2022-08-01T03:30:35.365Z,17.57
2022-08-01T03:31:37.168Z,17.58
2022-08-01T03:32:39.225Z,17.61
2022-08-01T03:33:40.950Z,17.61
2022-08-01T03:34:42.665Z,17.62
2022-08-01T03:35:44.331Z,17.63
2022-08-01T03:36:46.082Z,17.65
2022-08-01T03:38:13.518Z,17.67
2022-08-01T03:38:49.607Z,17.67
2022-08-01T03:39:51.253Z,17.68
2022-08-01T03:40:53.084Z,17.69
2022-08-01T03:41:56.785Z,17.7
2022-08-01T03:42:56.452Z,17.7
2022-08-01T03:43:58.601Z,17.71
2022-08-01T03:44:59.840Z,17.71
2022-08-01T03:46:01.654Z,17.71
2022-08-01T03:47:03.181Z,17.72
2022-08-01T03:48:05.051Z,17.71
2022-08-01T03:49:06.745Z,17.7
2022-08-01T03:50:12.068Z,17.69
2022-08-01T03:51:10.271Z,17.68
2022-08-01T03:52:11.946Z,17.66
2022-08-01T03:53:13.605Z,17.63
2022-08-01T03:54:15.318Z,17.61
2022-08-01T03:55:17.062Z,17.59
2022-08-01T03:56:18.732Z,17.57
2022-08-01T03:57:35.022Z,17.55
2022-08-01T03:58:22.360Z,17.53
2022-08-01T03:59:23.997Z,17.52
2022-08-01T04:00:25.682Z,17.51
2022-08-01T04:01:27.508Z,17.5
2022-08-01T04:02:29.194Z,17.49
2022-08-01T04:03:31.251Z,17.47
2022-08-01T04:04:32.676Z,17.46
2022-08-01T04:05:34.488Z,17.45
2022-08-01T04:06:36.215Z,17.43
2022-08-01T04:07:37.995Z,17.43
2022-08-01T04:08:39.616Z,17.4
2022-08-01T04:09:41.590Z,17.39
2022-08-01T04:10:43.024Z,17.37
2022-08-01T04:11:44.972Z,17.36
2022-08-01T04:12:46.659Z,17.33
2022-08-01T04:13:48.255Z,17.31
2022-08-01T04:14:50.189Z,17.29
2022-08-01T04:15:51.759Z,17.27
2022-08-01T04:16:53.598Z,17.24
2022-08-01T04:17:55.230Z,17.22
2022-08-01T04:18:57.036Z,17.19
2022-08-01T04:19:58.649Z,17.18
2022-08-01T04:21:00.377Z,17.15
2022-08-01T04:22:02.516Z,17.12
2022-08-01T04:23:04.044Z,17.1
2022-08-01T04:24:05.692Z,17.08
2022-08-01T04:25:07.313Z,17.06
2022-08-01T04:26:09.126Z,17.04
2022-08-01T04:27:10.794Z,17.02
2022-08-01T04:28:12.795Z,17.01
2022-08-01T04:29:14.270Z,17
2022-08-01T04:30:17.893Z,16.98
2022-08-01T04:31:17.722Z,16.96
2022-08-01T04:32:19.609Z,16.94
2022-08-01T04:33:21.218Z,16.93
2022-08-01T04:34:23.051Z,16.91
2022-08-01T04:36:01.503Z,16.89
2022-08-01T04:36:26.475Z,16.88
2022-08-01T04:37:28.149Z,16.86
2022-08-01T04:38:29.881Z,16.85
2022-08-01T04:39:31.770Z,16.83
2022-08-01T04:40:33.412Z,16.83
2022-08-01T04:41:35.383Z,16.82
2022-08-01T04:42:36.883Z,16.82
2022-08-01T04:43:38.583Z,16.8
2022-08-01T04:44:40.337Z,16.8
2022-08-01T04:45:42.011Z,16.8
2022-08-01T04:46:43.798Z,16.79
2022-08-01T04:47:45.750Z,16.78
2022-08-01T04:48:47.515Z,16.79
2022-08-01T04:49:49.500Z,16.78
2022-08-01T04:50:50.881Z,16.79
2022-08-01T04:51:52.483Z,16.78
2022-08-01T04:52:54.314Z,16.79
2022-08-01T04:53:55.907Z,16.8
2022-08-01T04:54:57.779Z,16.8
2022-08-01T04:55:59.464Z,16.81
2022-08-01T04:57:01.238Z,16.83
2022-08-01T04:58:03.013Z,16.83
2022-08-01T04:59:04.566Z,16.85
2022-08-01T05:00:06.576Z,16.86
2022-08-01T05:01:08.075Z,16.88
2022-08-01T05:02:10.192Z,16.89
2022-08-01T05:03:11.625Z,16.91
2022-08-01T05:04:13.277Z,16.92
2022-08-01T05:05:15.098Z,16.94
2022-08-01T05:06:16.764Z,16.97
2022-08-01T05:07:18.426Z,16.98
2022-08-01T05:08:20.178Z,17.01
2022-08-01T05:09:21.915Z,17.03
2022-08-01T05:10:23.682Z,17.05
2022-08-01T05:11:25.448Z,17.07
2022-08-01T05:12:27.197Z,17.09
2022-08-01T05:13:29.059Z,17.11
2022-08-01T05:14:31.127Z,17.14
2022-08-01T05:15:32.612Z,17.15
2022-08-01T05:16:34.330Z,17.17
2022-08-01T05:17:36.063Z,17.2
2022-08-01T05:18:37.875Z,17.22
2022-08-01T05:19:39.642Z,17.23
2022-08-01T05:20:41.475Z,17.25
2022-08-01T05:21:43.069Z,17.27
2022-08-01T05:22:44.846Z,17.29
2022-08-01T05:23:46.551Z,17.31
2022-08-01T05:24:48.229Z,17.33
2022-08-01T05:25:56.886Z,17.36
2022-08-01T05:26:51.735Z,17.39
2022-08-01T05:27:53.379Z,17.42
2022-08-01T05:28:55.074Z,17.44
2022-08-01T05:29:56.893Z,17.47
2022-08-01T05:30:58.707Z,17.49
2022-08-01T05:32:00.563Z,17.53
2022-08-01T05:33:02.405Z,17.56
2022-08-01T05:34:03.988Z,17.6
2022-08-01T05:35:05.610Z,17.64
2022-08-01T05:36:07.214Z,17.67
2022-08-01T05:37:09.068Z,17.71
2022-08-01T05:38:14.143Z,17.74
2022-08-01T05:39:12.764Z,17.78
2022-08-01T05:40:14.290Z,17.8
2022-08-01T05:41:15.946Z,17.83
2022-08-01T05:42:17.761Z,17.86
2022-08-01T05:43:19.583Z,17.89
2022-08-01T05:44:21.226Z,17.92
2022-08-01T05:45:22.642Z,17.96
2022-08-01T05:46:26.209Z,17.99
2022-08-01T05:47:26.106Z,18.03
2022-08-01T05:48:28.019Z,18.06
2022-08-01T05:49:29.794Z,18.09
2022-08-01T05:50:31.503Z,18.12
2022-08-01T05:51:33.192Z,18.15
2022-08-01T05:52:34.795Z,18.18
2022-08-01T05:53:36.603Z,18.21
2022-08-01T05:54:38.249Z,18.24
2022-08-01T05:55:40.053Z,18.26
2022-08-01T05:56:41.765Z,18.28
2022-08-01T05:57:43.482Z,18.3
2022-08-01T05:58:45.221Z,18.32
2022-08-01T05:59:47.066Z,18.34
2022-08-01T06:00:48.661Z,18.36
2022-08-01T06:01:50.476Z,18.38
2022-08-01T06:02:52.279Z,18.41
2022-08-01T06:03:53.881Z,18.42
2022-08-01T06:04:55.594Z,18.44
2022-08-01T06:05:57.491Z,18.46
2022-08-01T06:06:59.147Z,18.49
2022-08-01T06:08:00.804Z,18.51
2022-08-01T06:09:02.708Z,18.52
2022-08-01T06:10:04.427Z,18.54
2022-08-01T06:11:06.094Z,18.57
2022-08-01T06:12:08.121Z,18.58
2022-08-01T06:13:09.494Z,18.59
2022-08-01T06:14:11.538Z,18.61
2022-08-01T06:15:13.109Z,18.63
2022-08-01T06:16:14.829Z,18.64
2022-08-01T06:17:16.442Z,18.66
2022-08-01T06:18:18.342Z,18.67
2022-08-01T06:19:19.910Z,18.69
2022-08-01T06:20:21.639Z,18.71
2022-08-01T06:21:23.419Z,18.73
2022-08-01T06:22:25.116Z,18.74
2022-08-01T06:23:32.735Z,18.76
2022-08-01T06:24:28.780Z,18.78
2022-08-01T06:25:30.293Z,18.79
2022-08-01T06:26:32.037Z,18.81
2022-08-01T06:27:33.888Z,18.85
2022-08-01T06:28:35.519Z,18.89
2022-08-01T06:29:37.380Z,18.92
2022-08-01T06:30:38.977Z,18.96
2022-08-01T06:31:40.703Z,19
2022-08-01T06:32:42.599Z,19.05
2022-08-01T06:33:44.271Z,19.1
2022-08-01T06:34:46.034Z,19.17
2022-08-01T06:35:47.665Z,19.28
2022-08-01T06:36:49.404Z,19.35
2022-08-01T06:37:51.641Z,19.42
2022-08-01T06:38:52.983Z,19.47
2022-08-01T06:39:54.933Z,19.54
2022-08-01T06:40:56.648Z,19.6
2022-08-01T06:41:58.424Z,19.66
2022-08-01T06:43:00.282Z,19.72
2022-08-01T06:44:01.786Z,19.78
2022-08-01T06:45:03.610Z,19.83
2022-08-01T06:46:06.331Z,19.88
2022-08-01T06:47:07.122Z,19.95
2022-08-01T06:48:08.799Z,20
2022-08-01T06:49:10.642Z,20.04
2022-08-01T06:50:12.335Z,20.09
2022-08-01T06:51:14.087Z,20.12
2022-08-01T06:52:15.733Z,20.18
2022-08-01T06:53:17.556Z,20.26
2022-08-01T06:54:19.288Z,20.31
2022-08-01T06:55:20.850Z,20.34
2022-08-01T06:56:22.626Z,20.38
2022-08-01T06:57:24.510Z,20.41
2022-08-01T06:58:30.661Z,20.44
2022-08-01T06:59:27.939Z,20.46
2022-08-01T07:00:30.197Z,20.5
2022-08-01T07:01:35.003Z,20.53
2022-08-01T07:02:33.506Z,20.55
2022-08-01T07:03:52.730Z,20.58
2022-08-01T07:04:36.973Z,20.64
2022-08-01T07:05:38.280Z,20.66
2022-08-01T07:06:39.888Z,20.68
2022-08-01T07:07:41.991Z,20.71
2022-08-01T07:08:43.525Z,20.74
2022-08-01T07:09:45.213Z,20.78
2022-08-01T07:10:46.942Z,20.83
2022-08-01T07:11:48.631Z,20.88
2022-08-01T07:12:50.409Z,20.97
2022-08-01T07:13:52.109Z,21.07
2022-08-01T07:14:53.900Z,21.16
2022-08-01T07:15:55.633Z,21.25
2022-08-01T07:16:57.220Z,21.37
2022-08-01T07:17:59.199Z,21.42
2022-08-01T07:19:00.868Z,21.46
2022-08-01T07:20:02.569Z,21.5
2022-08-01T07:21:07.133Z,21.54
2022-08-01T07:22:06.330Z,21.56
2022-08-01T07:23:08.071Z,21.6
2022-08-01T07:24:12.723Z,21.62
2022-08-01T07:25:11.282Z,21.67
2022-08-01T07:26:12.980Z,21.69
2022-08-01T07:27:24.293Z,21.74
2022-08-01T07:28:16.503Z,21.75
2022-08-01T07:29:18.225Z,21.74
2022-08-01T07:30:20.385Z,21.76
2022-08-01T07:31:21.721Z,21.81
2022-08-01T07:32:23.397Z,21.86
2022-08-01T07:33:24.934Z,21.88
2022-08-01T07:34:26.897Z,21.91
2022-08-01T07:35:28.347Z,21.92
2022-08-01T07:36:30.389Z,21.96
2022-08-01T07:37:47.899Z,21.97
2022-08-01T07:38:33.787Z,21.97
2022-08-01T07:39:35.599Z,21.98
2022-08-01T07:40:37.248Z,22
2022-08-01T07:41:52.998Z,22.01
2022-08-01T07:42:40.798Z,22.02
2022-08-01T07:43:50.547Z,22.04
2022-08-01T07:44:44.106Z,22.09
2022-08-01T07:45:46.472Z,22.14
2022-08-01T07:46:47.563Z,22.14
2022-08-01T07:47:49.268Z,22.14
2022-08-01T07:48:51.149Z,22.16
2022-08-01T07:49:52.777Z,22.21
2022-08-01T07:50:54.514Z,22.27
2022-08-01T07:52:04.063Z,22.28
2022-08-01T07:52:57.781Z,22.29
2022-08-01T07:53:59.429Z,22.28
2022-08-01T07:55:01.422Z,22.28
2022-08-01T07:56:06.754Z,22.29
2022-08-01T07:57:04.941Z,22.3
2022-08-01T07:58:06.661Z,22.31
2022-08-01T07:59:08.309Z,22.32
2022-08-01T08:00:10.459Z,22.31
2022-08-01T08:01:11.484Z,22.3
2022-08-01T08:02:14.015Z,22.29
2022-08-01T08:03:15.780Z,22.28
2022-08-01T08:04:17.396Z,22.29
2022-08-01T08:05:57.688Z,22.29
2022-08-01T08:06:20.950Z,22.32
2022-08-01T08:07:22.279Z,22.32
2022-08-01T08:08:24.020Z,22.33
2022-08-01T08:09:25.634Z,22.34
2022-08-01T08:10:27.156Z,22.34
2022-08-01T08:11:30.043Z,22.35
2022-08-01T08:12:30.745Z,22.35
2022-08-01T08:13:32.599Z,22.36
2022-08-01T08:14:34.029Z,22.36
2022-08-01T08:15:36.072Z,22.37
2022-08-01T08:16:37.621Z,22.37
2022-08-01T08:17:39.351Z,22.37
2022-08-01T08:18:41.344Z,22.37
2022-08-01T08:19:42.932Z,22.36
2022-08-01T08:20:44.703Z,22.37
2022-08-01T08:21:46.506Z,22.37
2022-08-01T08:22:48.078Z,22.37
2022-08-01T08:23:49.903Z,22.38
2022-08-01T08:24:51.784Z,22.38
2022-08-01T08:25:53.389Z,22.38
2022-08-01T08:26:54.892Z,22.36
2022-08-01T08:27:56.913Z,22.37
2022-08-01T08:28:58.672Z,22.37
2022-08-01T08:30:00.521Z,22.37
2022-08-01T08:31:02.714Z,22.36
2022-08-01T08:32:04.002Z,22.36
2022-08-01T08:33:05.583Z,22.36
2022-08-01T08:34:07.241Z,22.35
2022-08-01T08:35:09.053Z,22.33
2022-08-01T08:36:10.725Z,22.33
2022-08-01T08:37:12.526Z,22.34
2022-08-01T08:38:14.252Z,22.34
2022-08-01T08:39:15.996Z,22.33
2022-08-01T08:40:17.593Z,22.33
2022-08-01T08:41:21.269Z,22.33
2022-08-01T08:42:21.197Z,22.34
2022-08-01T08:43:22.729Z,22.34
2022-08-01T08:44:24.667Z,22.36
2022-08-01T08:45:29.702Z,22.37
2022-08-01T08:46:28.466Z,22.39
2022-08-01T08:47:29.888Z,22.41
2022-08-01T08:48:31.601Z,22.44
2022-08-01T08:49:35.888Z,22.46
2022-08-01T08:50:34.908Z,22.49
2022-08-01T08:51:36.844Z,22.53
2022-08-01T08:52:38.507Z,22.56
2022-08-01T08:53:40.336Z,22.6
2022-08-01T08:54:42.333Z,22.64
2022-08-01T08:55:56.261Z,22.67
2022-08-01T08:56:45.476Z,22.71
2022-08-01T08:57:47.054Z,22.74
2022-08-01T08:58:48.942Z,22.77
2022-08-01T08:59:50.729Z,22.8
2022-08-01T09:00:52.949Z,22.83
2022-08-01T09:01:54.535Z,22.87
2022-08-01T09:02:56.427Z,22.9
2022-08-01T09:03:57.821Z,22.93
2022-08-01T09:04:59.611Z,22.96
2022-08-01T09:06:01.484Z,23
2022-08-01T09:07:03.401Z,23.01
2022-08-01T09:08:04.597Z,23.07
2022-08-01T09:09:06.286Z,23.14
2022-08-01T09:10:08.045Z,23.2
2022-08-01T09:11:09.632Z,23.24
2022-08-01T09:12:11.666Z,23.31
2022-08-01T09:13:14.616Z,23.36
2022-08-01T09:14:16.255Z,23.43
2022-08-01T09:15:16.426Z,23.53
2022-08-01T09:16:18.357Z,23.61
2022-08-01T09:17:20.264Z,23.69
2022-08-01T09:18:22.013Z,23.77
2022-08-01T09:19:39.882Z,23.81
2022-08-01T09:20:25.200Z,23.9
2022-08-01T09:21:27.147Z,23.98
2022-08-01T09:22:28.680Z,24.06
2022-08-01T09:23:30.329Z,24.09
2022-08-01T09:24:32.596Z,24.09
2022-08-01T09:25:45.981Z,24.11
2022-08-01T09:26:35.721Z,24.11
2022-08-01T09:27:37.547Z,24.11
2022-08-01T09:28:39.325Z,24.17
2022-08-01T09:29:41.220Z,24.22
2022-08-01T09:30:43.567Z,24.26
2022-08-01T09:31:47.250Z,24.29
2022-08-01T09:32:46.183Z,24.35
2022-08-01T09:33:47.925Z,24.35
2022-08-01T09:34:49.575Z,24.35
2022-08-01T09:35:51.320Z,24.39
2022-08-01T09:36:54.441Z,24.44
2022-08-01T09:37:54.769Z,24.44
2022-08-01T09:38:56.486Z,24.46
2022-08-01T09:39:58.317Z,24.5
2022-08-01T09:41:00.184Z,24.55
2022-08-01T09:42:01.786Z,24.63
2022-08-01T09:43:03.426Z,24.69
2022-08-01T09:44:05.215Z,24.73
2022-08-01T09:45:07.298Z,24.81
2022-08-01T09:46:08.683Z,24.85
2022-08-01T09:47:10.499Z,24.87
2022-08-01T09:48:12.077Z,24.91
2022-08-01T09:49:14.034Z,24.93
2022-08-01T09:50:15.604Z,24.93
2022-08-01T09:51:58.407Z,24.92
2022-08-01T09:52:19.206Z,24.91
2022-08-01T09:53:30.290Z,24.92
2022-08-01T09:54:22.443Z,24.96
2022-08-01T09:55:24.318Z,24.98
2022-08-01T09:56:26.130Z,25.03
2022-08-01T09:57:27.673Z,25.08
2022-08-01T09:58:29.586Z,25.12
2022-08-01T09:59:40.899Z,25.16
2022-08-01T10:00:44.429Z,25.21
2022-08-01T10:01:37.485Z,25.23
2022-08-01T10:02:37.022Z,25.3
2022-08-01T10:03:38.500Z,25.34
2022-08-01T10:04:40.258Z,25.36
2022-08-01T10:05:41.950Z,25.39
2022-08-01T10:06:44.003Z,25.49
2022-08-01T10:07:45.029Z,25.49
2022-08-01T10:08:46.893Z,25.51
2022-08-01T10:09:48.547Z,25.6
2022-08-01T10:10:50.296Z,25.66
2022-08-01T10:11:51.928Z,25.71
2022-08-01T10:12:53.840Z,25.76
2022-08-01T10:13:55.575Z,25.82
2022-08-01T10:14:57.301Z,25.88
2022-08-01T10:15:59.053Z,25.95
2022-08-01T10:17:04.921Z,25.98
2022-08-01T10:18:03.123Z,26.07
2022-08-01T10:19:04.255Z,26.15
2022-08-01T10:20:05.891Z,26.19
2022-08-01T10:21:11.019Z,26.22
2022-08-01T10:22:09.326Z,26.25
2022-08-01T10:23:11.118Z,26.27
2022-08-01T10:24:13.073Z,26.24
2022-08-01T10:25:14.546Z,26.23
2022-08-01T10:26:16.252Z,26.19
2022-08-01T10:27:24.741Z,26.14
2022-08-01T10:28:23.938Z,26.12
2022-08-01T10:29:24.319Z,26.05
2022-08-01T10:30:24.482Z,25.98
2022-08-01T10:31:30.924Z,25.91
2022-08-01T10:32:28.846Z,25.81
2022-08-01T10:33:52.373Z,25.75
2022-08-01T10:34:30.227Z,25.71
2022-08-01T10:35:46.728Z,25.65
2022-08-01T10:36:33.662Z,25.57
2022-08-01T10:37:35.460Z,25.46
2022-08-01T10:38:37.518Z,25.42
2022-08-01T10:39:38.655Z,25.44
2022-08-01T10:40:40.702Z,25.36
2022-08-01T10:41:42.370Z,25.31
2022-08-01T10:42:44.143Z,25.26
2022-08-01T10:43:47.065Z,25.21
2022-08-01T10:44:48.149Z,25.17
2022-08-01T10:45:49.137Z,25.14
2022-08-01T10:46:50.963Z,25.19
2022-08-01T10:47:53.015Z,25.17
2022-08-01T10:48:54.715Z,25.15
2022-08-01T10:49:56.297Z,25.14
2022-08-01T10:50:58.055Z,25.15
2022-08-01T10:51:59.794Z,25.19
2022-08-01T10:53:05.477Z,25.19
2022-08-01T10:54:03.436Z,25.18
2022-08-01T10:55:05.049Z,25.18
2022-08-01T10:56:07.553Z,25.19
2022-08-01T10:57:08.844Z,25.18
2022-08-01T10:58:10.060Z,25.16
2022-08-01T10:59:12.109Z,25.16
2022-08-01T11:00:13.947Z,25.16
2022-08-01T11:01:15.523Z,25.15
2022-08-01T11:02:17.307Z,25.13
2022-08-01T11:03:27.002Z,25.13
2022-08-01T11:04:20.943Z,25.11
2022-08-01T11:05:24.201Z,25.1
2022-08-01T11:06:24.610Z,25.14
2022-08-01T11:07:25.684Z,25.17
2022-08-01T11:08:27.781Z,25.2
2022-08-01T11:09:36.507Z,25.23
2022-08-01T11:10:30.795Z,25.34
2022-08-01T11:11:37.519Z,25.42
2022-08-01T11:12:34.411Z,25.49
2022-08-01T11:13:36.116Z,25.6
2022-08-01T11:14:55.124Z,25.68
2022-08-01T11:15:49.940Z,25.78
2022-08-01T11:16:41.383Z,25.89
2022-08-01T11:17:43.354Z,25.95
2022-08-01T11:18:44.858Z,25.97
2022-08-01T11:19:46.665Z,26.01
2022-08-01T11:20:48.176Z,26.03
2022-08-01T11:21:57.269Z,26.09
2022-08-01T11:22:51.816Z,26.11
2022-08-01T11:23:53.586Z,26.13
2022-08-01T11:24:55.295Z,26.14
2022-08-01T11:26:03.568Z,26.2
2022-08-01T11:26:58.629Z,26.29
2022-08-01T11:28:00.790Z,26.37
2022-08-01T11:29:19.404Z,26.46
2022-08-01T11:30:04.560Z,26.53
2022-08-01T11:31:11.719Z,26.6
2022-08-01T11:32:07.707Z,26.67
2022-08-01T11:33:11.222Z,26.75
2022-08-01T11:34:10.886Z,26.77
2022-08-01T11:35:12.524Z,26.8
2022-08-01T11:36:15.507Z,26.81
2022-08-01T11:37:16.078Z,26.82
2022-08-01T11:38:17.807Z,26.82
2022-08-01T11:39:19.414Z,26.82
2022-08-01T11:40:22.785Z,26.82
2022-08-01T11:41:36.864Z,26.8
2022-08-01T11:42:24.741Z,26.78
2022-08-01T11:43:26.503Z,26.76
2022-08-01T11:44:30.180Z,26.73
2022-08-01T11:45:29.674Z,26.7
2022-08-01T11:46:31.690Z,26.69
2022-08-01T11:47:33.111Z,26.67
2022-08-01T11:48:35.194Z,26.65
2022-08-01T11:49:36.988Z,26.65
2022-08-01T11:50:38.989Z,26.67
2022-08-01T11:51:40.486Z,26.68
2022-08-01T11:52:41.985Z,26.71
2022-08-01T11:53:43.892Z,26.73
2022-08-01T11:54:45.603Z,26.77
2022-08-01T11:55:47.737Z,26.82
2022-08-01T11:56:49.011Z,26.85
2022-08-01T11:57:50.805Z,26.88
2022-08-01T11:58:52.533Z,26.92
2022-08-01T12:00:03.307Z,26.9
2022-08-01T12:00:56.264Z,26.92
2022-08-01T12:01:58.000Z,26.93
2022-08-01T12:03:00.069Z,26.93
2022-08-01T12:04:01.397Z,26.93
2022-08-01T12:05:03.671Z,26.93
2022-08-01T12:06:11.716Z,26.9
2022-08-01T12:07:07.108Z,26.89
2022-08-01T12:08:08.360Z,26.91
2022-08-01T12:09:12.125Z,26.91
2022-08-01T12:10:11.571Z,26.92
2022-08-01T12:11:13.433Z,26.92
2022-08-01T12:12:15.098Z,26.93
2022-08-01T12:13:16.867Z,26.96
2022-08-01T12:14:18.436Z,26.97
2022-08-01T12:15:20.313Z,26.99
2022-08-01T12:16:24.001Z,27
2022-08-01T12:17:23.720Z,26.96
2022-08-01T12:18:25.454Z,26.96
2022-08-01T12:19:27.050Z,26.94
2022-08-01T12:20:30.537Z,26.94
2022-08-01T12:21:30.636Z,26.92
2022-08-01T12:22:32.430Z,26.92
2022-08-01T12:23:34.109Z,26.92
2022-08-01T12:24:35.734Z,26.92
2022-08-01T12:25:37.671Z,26.93
2022-08-01T12:26:39.501Z,26.93
2022-08-01T12:27:40.973Z,26.92
2022-08-01T12:28:43.017Z,26.92
2022-08-01T12:29:44.527Z,26.91
2022-08-01T12:30:46.627Z,26.91
2022-08-01T12:31:48.382Z,26.89
2022-08-01T12:32:50.059Z,26.88
2022-08-01T12:33:51.582Z,26.87
2022-08-01T12:34:53.432Z,26.86
2022-08-01T12:35:54.981Z,26.84
2022-08-01T12:36:56.550Z,26.82
2022-08-01T12:37:58.072Z,26.79
2022-08-01T12:38:59.946Z,26.79
2022-08-01T12:40:01.987Z,26.78
2022-08-01T12:41:03.308Z,26.79
2022-08-01T12:42:05.353Z,26.8
2022-08-01T12:43:08.760Z,26.81
2022-08-01T12:44:08.747Z,26.83
2022-08-01T12:45:10.549Z,26.86
2022-08-01T12:46:12.238Z,26.88
2022-08-01T12:47:13.952Z,26.9
2022-08-01T12:48:15.747Z,26.92
2022-08-01T12:49:17.574Z,26.94
2022-08-01T12:50:19.210Z,26.96
2022-08-01T12:51:20.907Z,26.98
2022-08-01T12:52:22.588Z,26.98
2022-08-01T12:53:24.513Z,27
2022-08-01T12:54:26.352Z,27
2022-08-01T12:55:34.239Z,27.01
2022-08-01T12:56:29.694Z,27.02
2022-08-01T12:57:31.410Z,27.02
2022-08-01T12:58:33.457Z,27
2022-08-01T12:59:34.531Z,27.01
2022-08-01T13:00:37.102Z,27.01
2022-08-01T13:01:38.892Z,27
2022-08-01T13:02:39.707Z,26.98
2022-08-01T13:03:42.028Z,26.95
2022-08-01T13:04:46.926Z,26.94
2022-08-01T13:05:45.049Z,26.91
2022-08-01T13:06:46.783Z,26.87
2022-08-01T13:07:49.152Z,26.84
2022-08-01T13:08:50.500Z,26.8
2022-08-01T13:09:52.041Z,26.76
2022-08-01T13:10:53.846Z,26.73
2022-08-01T13:12:03.809Z,26.7
2022-08-01T13:12:57.103Z,26.66
2022-08-01T13:13:58.779Z,26.62
2022-08-01T13:15:00.799Z,26.57
2022-08-01T13:16:02.666Z,26.52
2022-08-01T13:17:04.332Z,26.48
2022-08-01T13:18:05.889Z,26.45